sensor_id;sensor_type;location;lat;lon;timestamp;temperature;humidity
40808;DHT22;26523;52.504;13.498;2022-07-29T00:00:41;16.20;99.90
40808;DHT22;26523;52.504;13.498;2022-07-29T00:03:10;16.20;99.90
40808;DHT22;26523;52.504;13.498;2022-07-29T00:05:35;16.10;99.90
40808;DHT22;26523;52.504;13.498;2022-07-29T00:08:01;16.10;99.90
40808;DHT22;26523;52.504;13.498;2022-07-29T00:10:27;16.00;99.90
40808;DHT22;26523;52.504;13.498;2022-07-29T00:12:53;16.00;99.90
40808;DHT22;26523;52.504;13.498;2022-07-29T00:15:18;16.00;99.90
40808;DHT22;26523;52.504;13.498;2022-07-29T00:17:44;16.00;99.90
40808;DHT22;26523;52.504;13.498;2022-07-29T00:20:10;15.90;99.90
40808;DHT22;26523;52.504;13.498;2022-07-29T00:22:39;15.90;99.90
40808;DHT22;26523;52.504;13.498;2022-07-29T00:25:05;15.90;99.90
40808;DHT22;26523;52.504;13.498;2022-07-29T00:27:31;15.80;99.90
40808;DHT22;26523;52.504;13.498;2022-07-29T00:29:56;15.80;99.90
40808;DHT22;26523;52.504;13.498;2022-07-29T00:32:22;15.80;99.90
40808;DHT22;26523;52.504;13.498;2022-07-29T00:34:47;15.80;99.90
40808;DHT22;26523;52.504;13.498;2022-07-29T00:37:31;15.70;99.90
40808;DHT22;26523;52.504;13.498;2022-07-29T00:39:57;15.70;99.90
40808;DHT22;26523;52.504;13.498;2022-07-29T00:42:23;15.70;99.90
40808;DHT22;26523;52.504;13.498;2022-07-29T00:44:48;15.70;99.90
40808;DHT22;26523;52.504;13.498;2022-07-29T00:47:14;15.70;99.90
40808;DHT22;26523;52.504;13.498;2022-07-29T00:49:41;15.60;99.90
40808;DHT22;26523;52.504;13.498;2022-07-29T00:52:08;15.60;99.90
40808;DHT22;26523;52.504;13.498;2022-07-29T00:54:35;15.60;99.90
40808;DHT22;26523;52.504;13.498;2022-07-29T00:57:01;15.50;99.90
40808;DHT22;26523;52.504;13.498;2022-07-29T00:59:27;15.50;99.90
40808;DHT22;26523;52.504;13.498;2022-07-29T01:01:53;15.50;99.90
40808;DHT22;26523;52.504;13.498;2022-07-29T01:04:20;15.50;99.90
40808;DHT22;26523;52.504;13.498;2022-07-29T01:06:47;15.40;99.90
40808;DHT22;26523;52.504;13.498;2022-07-29T01:09:14;15.40;99.90
40808;DHT22;26523;52.504;13.498;2022-07-29T01:11:42;15.40;99.90
40808;DHT22;26523;52.504;13.498;2022-07-29T01:14:09;15.40;99.90
40808;DHT22;26523;52.504;13.498;2022-07-29T01:16:49;15.30;99.90
40808;DHT22;26523;52.504;13.498;2022-07-29T01:19:43;15.30;99.90
40808;DHT22;26523;52.504;13.498;2022-07-29T01:22:24;15.30;99.90
40808;DHT22;26523;52.504;13.498;2022-07-29T01:30:29;15.20;99.90
40808;DHT22;26523;52.504;13.498;2022-07-29T01:32:59;15.20;99.90
40808;DHT22;26523;52.504;13.498;2022-07-29T01:35:28;15.20;99.90
40808;DHT22;26523;52.504;13.498;2022-07-29T01:38:03;15.20;99.90
40808;DHT22;26523;52.504;13.498;2022-07-29T01:40:34;15.10;99.90
40808;DHT22;26523;52.504;13.498;2022-07-29T01:43:09;15.20;99.90
40808;DHT22;26523;52.504;13.498;2022-07-29T01:45:43;15.20;99.90
40808;DHT22;26523;52.504;13.498;2022-07-29T01:48:16;15.10;99.90
40808;DHT22;26523;52.504;13.498;2022-07-29T01:50:49;15.10;99.90
40808;DHT22;26523;52.504;13.498;2022-07-29T01:53:24;15.10;99.90
40808;DHT22;26523;52.504;13.498;2022-07-29T01:55:51;15.10;99.90
40808;DHT22;26523;52.504;13.498;2022-07-29T01:58:18;15.10;99.90
40808;DHT22;26523;52.504;13.498;2022-07-29T02:00:45;15.10;99.90
40808;DHT22;26523;52.504;13.498;2022-07-29T02:03:12;15.10;99.90
40808;DHT22;26523;52.504;13.498;2022-07-29T02:05:41;15.00;99.90
40808;DHT22;26523;52.504;13.498;2022-07-29T02:08:08;15.00;99.90
40808;DHT22;26523;52.504;13.498;2022-07-29T02:10:35;15.00;99.90
40808;DHT22;26523;52.504;13.498;2022-07-29T02:13:02;15.00;99.90
40808;DHT22;26523;52.504;13.498;2022-07-29T02:15:30;14.90;99.90
40808;DHT22;26523;52.504;13.498;2022-07-29T02:18:04;14.90;99.90
40808;DHT22;26523;52.504;13.498;2022-07-29T02:20:30;14.90;99.90
40808;DHT22;26523;52.504;13.498;2022-07-29T02:22:59;14.90;99.90
40808;DHT22;26523;52.504;13.498;2022-07-29T02:25:26;14.90;99.90
40808;DHT22;26523;52.504;13.498;2022-07-29T02:27:54;14.80;99.90
40808;DHT22;26523;52.504;13.498;2022-07-29T02:30:22;14.80;99.90
40808;DHT22;26523;52.504;13.498;2022-07-29T02:32:48;14.80;99.90
40808;DHT22;26523;52.504;13.498;2022-07-29T02:35:15;14.80;99.90
40808;DHT22;26523;52.504;13.498;2022-07-29T02:37:43;14.70;99.90
40808;DHT22;26523;52.504;13.498;2022-07-29T02:40:11;14.70;99.90
40808;DHT22;26523;52.504;13.498;2022-07-29T02:42:41;14.70;99.90
40808;DHT22;26523;52.504;13.498;2022-07-29T02:45:07;14.70;99.90
40808;DHT22;26523;52.504;13.498;2022-07-29T02:47:36;14.70;99.90
40808;DHT22;26523;52.504;13.498;2022-07-29T02:50:15;14.70;99.90
40808;DHT22;26523;52.504;13.498;2022-07-29T02:52:45;14.70;99.90
40808;DHT22;26523;52.504;13.498;2022-07-29T02:55:40;14.70;99.90
40808;DHT22;26523;52.504;13.498;2022-07-29T02:58:15;14.70;99.90
40808;DHT22;26523;52.504;13.498;2022-07-29T03:00:44;14.70;99.90
40808;DHT22;26523;52.504;13.498;2022-07-29T03:03:13;14.70;99.90
40808;DHT22;26523;52.504;13.498;2022-07-29T03:05:40;14.70;99.90
40808;DHT22;26523;52.504;13.498;2022-07-29T03:08:08;14.70;99.90
40808;DHT22;26523;52.504;13.498;2022-07-29T03:10:35;14.70;99.90
40808;DHT22;26523;52.504;13.498;2022-07-29T03:13:03;14.70;99.90
40808;DHT22;26523;52.504;13.498;2022-07-29T03:15:30;14.70;99.90
40808;DHT22;26523;52.504;13.498;2022-07-29T03:17:56;14.80;99.90
40808;DHT22;26523;52.504;13.498;2022-07-29T03:20:23;14.80;99.90
40808;DHT22;26523;52.504;13.498;2022-07-29T03:22:49;14.80;99.90
40808;DHT22;26523;52.504;13.498;2022-07-29T03:25:18;14.80;99.90
40808;DHT22;26523;52.504;13.498;2022-07-29T03:27:44;14.80;99.90
40808;DHT22;26523;52.504;13.498;2022-07-29T03:30:11;14.80;99.90
40808;DHT22;26523;52.504;13.498;2022-07-29T03:32:37;14.80;99.90
40808;DHT22;26523;52.504;13.498;2022-07-29T03:35:04;14.80;99.90
40808;DHT22;26523;52.504;13.498;2022-07-29T03:37:30;14.80;99.90
40808;DHT22;26523;52.504;13.498;2022-07-29T03:39:57;14.80;99.90
40808;DHT22;26523;52.504;13.498;2022-07-29T03:42:30;14.80;99.90
40808;DHT22;26523;52.504;13.498;2022-07-29T03:44:57;14.80;99.90
40808;DHT22;26523;52.504;13.498;2022-07-29T03:47:26;14.90;99.90
40808;DHT22;26523;52.504;13.498;2022-07-29T03:49:56;14.80;99.90
40808;DHT22;26523;52.504;13.498;2022-07-29T03:52:25;14.80;99.90
40808;DHT22;26523;52.504;13.498;2022-07-29T03:54:50;14.80;99.90
40808;DHT22;26523;52.504;13.498;2022-07-29T03:57:19;14.90;99.90
40808;DHT22;26523;52.504;13.498;2022-07-29T03:59:46;14.90;99.90
40808;DHT22;26523;52.504;13.498;2022-07-29T04:02:12;14.80;99.90
40808;DHT22;26523;52.504;13.498;2022-07-29T04:04:39;14.80;99.90
40808;DHT22;26523;52.504;13.498;2022-07-29T04:07:05;14.80;99.90
40808;DHT22;26523;52.504;13.498;2022-07-29T04:09:31;14.90;99.90
40808;DHT22;26523;52.504;13.498;2022-07-29T04:11:56;14.90;99.90
40808;DHT22;26523;52.504;13.498;2022-07-29T04:14:22;14.90;99.90
40808;DHT22;26523;52.504;13.498;2022-07-29T04:16:47;15.00;99.90
40808;DHT22;26523;52.504;13.498;2022-07-29T04:19:13;15.00;99.90
40808;DHT22;26523;52.504;13.498;2022-07-29T04:21:39;15.10;99.90
40808;DHT22;26523;52.504;13.498;2022-07-29T04:24:05;15.20;99.90
40808;DHT22;26523;52.504;13.498;2022-07-29T04:26:31;15.30;99.90
40808;DHT22;26523;52.504;13.498;2022-07-29T04:28:57;15.40;99.90
40808;DHT22;26523;52.504;13.498;2022-07-29T04:31:23;15.40;99.90
40808;DHT22;26523;52.504;13.498;2022-07-29T04:33:48;15.50;99.90
40808;DHT22;26523;52.504;13.498;2022-07-29T04:36:14;15.60;99.90
40808;DHT22;26523;52.504;13.498;2022-07-29T04:38:40;15.70;99.90
40808;DHT22;26523;52.504;13.498;2022-07-29T04:41:05;15.70;99.90
40808;DHT22;26523;52.504;13.498;2022-07-29T04:43:32;15.70;99.90
40808;DHT22;26523;52.504;13.498;2022-07-29T04:45:58;15.80;99.90
40808;DHT22;26523;52.504;13.498;2022-07-29T04:48:25;15.80;99.90
40808;DHT22;26523;52.504;13.498;2022-07-29T04:50:50;15.80;99.90
40808;DHT22;26523;52.504;13.498;2022-07-29T04:53:16;15.90;99.90
40808;DHT22;26523;52.504;13.498;2022-07-29T04:55:41;15.90;99.90
40808;DHT22;26523;52.504;13.498;2022-07-29T04:58:07;16.00;99.90
40808;DHT22;26523;52.504;13.498;2022-07-29T05:00:33;16.10;99.90
40808;DHT22;26523;52.504;13.498;2022-07-29T05:02:59;16.20;99.90
40808;DHT22;26523;52.504;13.498;2022-07-29T05:05:25;16.10;99.90
40808;DHT22;26523;52.504;13.498;2022-07-29T05:07:50;16.20;99.90
40808;DHT22;26523;52.504;13.498;2022-07-29T05:10:16;16.20;99.90
40808;DHT22;26523;52.504;13.498;2022-07-29T05:12:42;16.20;99.90
40808;DHT22;26523;52.504;13.498;2022-07-29T05:15:08;16.30;99.90
40808;DHT22;26523;52.504;13.498;2022-07-29T05:17:34;16.40;99.90
40808;DHT22;26523;52.504;13.498;2022-07-29T05:20:00;16.50;99.90
40808;DHT22;26523;52.504;13.498;2022-07-29T05:22:25;16.40;99.90
40808;DHT22;26523;52.504;13.498;2022-07-29T05:24:51;16.50;99.90
40808;DHT22;26523;52.504;13.498;2022-07-29T05:27:17;16.70;99.90
40808;DHT22;26523;52.504;13.498;2022-07-29T05:29:43;17.00;99.90
40808;DHT22;26523;52.504;13.498;2022-07-29T05:32:09;17.10;99.90
40808;DHT22;26523;52.504;13.498;2022-07-29T05:34:35;17.10;99.90
40808;DHT22;26523;52.504;13.498;2022-07-29T05:37:00;17.10;99.90
40808;DHT22;26523;52.504;13.498;2022-07-29T05:39:26;17.10;99.90
40808;DHT22;26523;52.504;13.498;2022-07-29T05:41:52;17.00;99.90
40808;DHT22;26523;52.504;13.498;2022-07-29T05:44:17;17.10;99.90
40808;DHT22;26523;52.504;13.498;2022-07-29T05:46:43;17.10;99.90
40808;DHT22;26523;52.504;13.498;2022-07-29T05:49:08;17.10;99.90
40808;DHT22;26523;52.504;13.498;2022-07-29T05:51:34;17.00;99.90
40808;DHT22;26523;52.504;13.498;2022-07-29T05:54:00;17.10;99.90
40808;DHT22;26523;52.504;13.498;2022-07-29T05:56:27;17.10;99.90
40808;DHT22;26523;52.504;13.498;2022-07-29T05:58:52;17.10;99.90
40808;DHT22;26523;52.504;13.498;2022-07-29T06:01:18;17.30;99.90
40808;DHT22;26523;52.504;13.498;2022-07-29T06:03:44;17.30;99.90
40808;DHT22;26523;52.504;13.498;2022-07-29T06:06:11;17.50;99.90
40808;DHT22;26523;52.504;13.498;2022-07-29T06:08:38;17.70;99.90
40808;DHT22;26523;52.504;13.498;2022-07-29T06:11:04;18.30;99.90
40808;DHT22;26523;52.504;13.498;2022-07-29T06:13:30;18.70;99.90
40808;DHT22;26523;52.504;13.498;2022-07-29T06:15:56;19.30;99.90
40808;DHT22;26523;52.504;13.498;2022-07-29T06:18:22;20.70;99.50
40808;DHT22;26523;52.504;13.498;2022-07-29T06:20:50;21.60;94.80
40808;DHT22;26523;52.504;13.498;2022-07-29T06:23:16;22.00;92.50
40808;DHT22;26523;52.504;13.498;2022-07-29T06:25:42;22.10;90.80
40808;DHT22;26523;52.504;13.498;2022-07-29T06:28:07;22.00;90.30
40808;DHT22;26523;52.504;13.498;2022-07-29T06:30:33;23.20;85.70
40808;DHT22;26523;52.504;13.498;2022-07-29T06:32:59;24.80;81.60
40808;DHT22;26523;52.504;13.498;2022-07-29T06:35:25;26.20;72.80
40808;DHT22;26523;52.504;13.498;2022-07-29T06:37:51;25.70;73.20
40808;DHT22;26523;52.504;13.498;2022-07-29T06:40:17;24.90;73.10
40808;DHT22;26523;52.504;13.498;2022-07-29T06:43:01;23.70;75.20
40808;DHT22;26523;52.504;13.498;2022-07-29T06:45:26;23.10;77.40
40808;DHT22;26523;52.504;13.498;2022-07-29T06:47:52;22.60;78.60
40808;DHT22;26523;52.504;13.498;2022-07-29T06:50:18;22.40;79.50
40808;DHT22;26523;52.504;13.498;2022-07-29T06:52:44;22.40;80.40
40808;DHT22;26523;52.504;13.498;2022-07-29T06:55:09;22.30;80.30
40808;DHT22;26523;52.504;13.498;2022-07-29T06:57:35;22.00;80.80
40808;DHT22;26523;52.504;13.498;2022-07-29T07:00:01;21.50;81.80
40808;DHT22;26523;52.504;13.498;2022-07-29T07:02:28;21.60;82.90
40808;DHT22;26523;52.504;13.498;2022-07-29T07:04:53;21.20;84.40
40808;DHT22;26523;52.504;13.498;2022-07-29T07:07:19;21.00;85.90
40808;DHT22;26523;52.504;13.498;2022-07-29T07:09:48;21.10;86.10
40808;DHT22;26523;52.504;13.498;2022-07-29T07:12:13;21.00;86.00
40808;DHT22;26523;52.504;13.498;2022-07-29T07:14:39;21.30;87.00
40808;DHT22;26523;52.504;13.498;2022-07-29T07:17:06;21.60;86.30
40808;DHT22;26523;52.504;13.498;2022-07-29T07:19:32;21.80;84.10
40808;DHT22;26523;52.504;13.498;2022-07-29T07:21:57;22.80;82.80
40808;DHT22;26523;52.504;13.498;2022-07-29T07:24:23;25.10;76.70
40808;DHT22;26523;52.504;13.498;2022-07-29T07:26:49;26.30;70.40
40808;DHT22;26523;52.504;13.498;2022-07-29T07:29:14;26.60;69.20
40808;DHT22;26523;52.504;13.498;2022-07-29T07:31:40;26.10;67.90
40808;DHT22;26523;52.504;13.498;2022-07-29T07:34:05;26.30;68.20
40808;DHT22;26523;52.504;13.498;2022-07-29T07:36:31;27.40;67.60
40808;DHT22;26523;52.504;13.498;2022-07-29T07:38:56;28.50;65.00
40808;DHT22;26523;52.504;13.498;2022-07-29T07:41:22;30.50;61.60
40808;DHT22;26523;52.504;13.498;2022-07-29T07:43:48;30.60;59.10
40808;DHT22;26523;52.504;13.498;2022-07-29T07:46:14;31.70;58.90
40808;DHT22;26523;52.504;13.498;2022-07-29T07:48:40;32.70;56.20
40808;DHT22;26523;52.504;13.498;2022-07-29T07:51:05;33.90;54.30
40808;DHT22;26523;52.504;13.498;2022-07-29T07:53:32;33.50;52.40
40808;DHT22;26523;52.504;13.498;2022-07-29T07:55:58;34.40;53.00
40808;DHT22;26523;52.504;13.498;2022-07-29T07:58:24;33.80;51.10
40808;DHT22;26523;52.504;13.498;2022-07-29T08:00:49;32.80;52.50
40808;DHT22;26523;52.504;13.498;2022-07-29T08:03:15;33.30;50.90
40808;DHT22;26523;52.504;13.498;2022-07-29T08:05:41;33.80;51.10
40808;DHT22;26523;52.504;13.498;2022-07-29T08:08:06;33.90;51.50
40808;DHT22;26523;52.504;13.498;2022-07-29T08:10:33;33.40;51.50
40808;DHT22;26523;52.504;13.498;2022-07-29T08:13:17;35.00;50.20
40808;DHT22;26523;52.504;13.498;2022-07-29T08:15:43;33.00;50.50
40808;DHT22;26523;52.504;13.498;2022-07-29T08:18:11;31.00;53.10
40808;DHT22;26523;52.504;13.498;2022-07-29T08:20:37;30.50;54.00
40808;DHT22;26523;52.504;13.498;2022-07-29T08:23:05;31.50;53.70
40808;DHT22;26523;52.504;13.498;2022-07-29T08:25:32;31.40;52.90
40808;DHT22;26523;52.504;13.498;2022-07-29T08:27:58;31.50;53.70
40808;DHT22;26523;52.504;13.498;2022-07-29T08:30:24;31.20;53.90
40808;DHT22;26523;52.504;13.498;2022-07-29T08:32:50;29.70;55.00
40808;DHT22;26523;52.504;13.498;2022-07-29T08:35:19;29.00;56.40
40808;DHT22;26523;52.504;13.498;2022-07-29T08:37:44;28.90;57.10
40808;DHT22;26523;52.504;13.498;2022-07-29T08:40:11;29.00;57.10
40808;DHT22;26523;52.504;13.498;2022-07-29T08:42:37;29.60;56.60
40808;DHT22;26523;52.504;13.498;2022-07-29T08:45:04;28.70;55.90
40808;DHT22;26523;52.504;13.498;2022-07-29T08:47:30;27.60;58.60
40808;DHT22;26523;52.504;13.498;2022-07-29T08:49:56;26.80;59.00
40808;DHT22;26523;52.504;13.498;2022-07-29T08:52:22;26.30;60.40
40808;DHT22;26523;52.504;13.498;2022-07-29T08:54:52;26.50;59.70
40808;DHT22;26523;52.504;13.498;2022-07-29T08:57:18;26.30;60.00
40808;DHT22;26523;52.504;13.498;2022-07-29T08:59:46;26.20;60.60
40808;DHT22;26523;52.504;13.498;2022-07-29T09:02:19;26.50;61.10
40808;DHT22;26523;52.504;13.498;2022-07-29T09:04:45;26.80;59.90
40808;DHT22;26523;52.504;13.498;2022-07-29T09:07:14;27.10;59.20
40808;DHT22;26523;52.504;13.498;2022-07-29T09:09:41;27.60;59.30
40808;DHT22;26523;52.504;13.498;2022-07-29T09:12:09;26.30;58.70
40808;DHT22;26523;52.504;13.498;2022-07-29T09:14:37;26.00;60.10
40808;DHT22;26523;52.504;13.498;2022-07-29T09:17:03;26.00;60.20
40808;DHT22;26523;52.504;13.498;2022-07-29T09:19:31;25.80;60.80
40808;DHT22;26523;52.504;13.498;2022-07-29T09:22:00;25.90;60.40
40808;DHT22;26523;52.504;13.498;2022-07-29T09:27:24;27.90;57.70
40808;DHT22;26523;52.504;13.498;2022-07-29T09:30:04;27.80;57.20
40808;DHT22;26523;52.504;13.498;2022-07-29T09:32:31;27.50;58.00
40808;DHT22;26523;52.504;13.498;2022-07-29T09:35:36;27.10;58.20
40808;DHT22;26523;52.504;13.498;2022-07-29T09:38:14;27.10;58.10
40808;DHT22;26523;52.504;13.498;2022-07-29T09:40:40;27.70;57.50
40808;DHT22;26523;52.504;13.498;2022-07-29T09:43:12;27.30;57.70
40808;DHT22;26523;52.504;13.498;2022-07-29T09:45:47;27.00;57.90
40808;DHT22;26523;52.504;13.498;2022-07-29T09:48:19;26.50;58.70
40808;DHT22;26523;52.504;13.498;2022-07-29T09:50:46;25.90;58.50
40808;DHT22;26523;52.504;13.498;2022-07-29T09:53:33;26.20;58.00
40808;DHT22;26523;52.504;13.498;2022-07-29T09:55:59;26.20;58.50
40808;DHT22;26523;52.504;13.498;2022-07-29T09:58:25;26.60;59.10
40808;DHT22;26523;52.504;13.498;2022-07-29T10:00:53;26.60;57.80
40808;DHT22;26523;52.504;13.498;2022-07-29T10:03:19;26.80;57.90
40808;DHT22;26523;52.504;13.498;2022-07-29T10:05:46;26.60;58.00
40808;DHT22;26523;52.504;13.498;2022-07-29T10:08:12;26.40;57.70
40808;DHT22;26523;52.504;13.498;2022-07-29T10:10:40;26.30;56.80
40808;DHT22;26523;52.504;13.498;2022-07-29T10:13:11;26.70;57.50
40808;DHT22;26523;52.504;13.498;2022-07-29T10:15:39;27.10;57.40
40808;DHT22;26523;52.504;13.498;2022-07-29T10:18:07;26.90;57.10
40808;DHT22;26523;52.504;13.498;2022-07-29T10:20:33;26.80;56.90
40808;DHT22;26523;52.504;13.498;2022-07-29T10:22:59;26.50;56.30
40808;DHT22;26523;52.504;13.498;2022-07-29T10:25:25;26.10;57.30
40808;DHT22;26523;52.504;13.498;2022-07-29T10:27:51;25.90;57.30
40808;DHT22;26523;52.504;13.498;2022-07-29T10:30:19;25.90;57.00
40808;DHT22;26523;52.504;13.498;2022-07-29T10:36:00;26.30;56.70
40808;DHT22;26523;52.504;13.498;2022-07-29T10:38:55;26.40;56.40
40808;DHT22;26523;52.504;13.498;2022-07-29T10:44:21;26.00;56.90
40808;DHT22;26523;52.504;13.498;2022-07-29T10:46:48;25.90;57.10
40808;DHT22;26523;52.504;13.498;2022-07-29T10:49:24;26.00;57.30
40808;DHT22;26523;52.504;13.498;2022-07-29T10:54:18;25.80;57.70
40808;DHT22;26523;52.504;13.498;2022-07-29T10:56:43;26.00;58.40
40808;DHT22;26523;52.504;13.498;2022-07-29T11:01:48;26.40;57.10
40808;DHT22;26523;52.504;13.498;2022-07-29T11:07:11;26.30;58.20
40808;DHT22;26523;52.504;13.498;2022-07-29T11:09:38;26.30;57.90
40808;DHT22;26523;52.504;13.498;2022-07-29T11:12:45;25.90;57.40
40808;DHT22;26523;52.504;13.498;2022-07-29T11:14:58;25.70;58.10
40808;DHT22;26523;52.504;13.498;2022-07-29T11:17:24;25.50;58.50
40808;DHT22;26523;52.504;13.498;2022-07-29T11:19:50;25.60;59.40
40808;DHT22;26523;52.504;13.498;2022-07-29T11:22:35;25.40;59.10
40808;DHT22;26523;52.504;13.498;2022-07-29T11:25:16;25.30;59.00
40808;DHT22;26523;52.504;13.498;2022-07-29T11:27:42;25.30;59.40
40808;DHT22;26523;52.504;13.498;2022-07-29T11:30:08;25.40;59.40
40808;DHT22;26523;52.504;13.498;2022-07-29T11:32:40;25.50;59.50
40808;DHT22;26523;52.504;13.498;2022-07-29T11:37:39;25.90;60.00
40808;DHT22;26523;52.504;13.498;2022-07-29T11:45:22;26.60;59.00
40808;DHT22;26523;52.504;13.498;2022-07-29T11:47:52;26.90;59.30
40808;DHT22;26523;52.504;13.498;2022-07-29T11:50:35;27.00;59.40
40808;DHT22;26523;52.504;13.498;2022-07-29T11:53:09;26.70;59.60
40808;DHT22;26523;52.504;13.498;2022-07-29T11:55:38;26.60;61.20
40808;DHT22;26523;52.504;13.498;2022-07-29T11:58:03;26.50;60.80
40808;DHT22;26523;52.504;13.498;2022-07-29T12:00:32;26.20;61.00
40808;DHT22;26523;52.504;13.498;2022-07-29T12:02:59;26.10;61.70
40808;DHT22;26523;52.504;13.498;2022-07-29T12:05:42;25.80;62.00
40808;DHT22;26523;52.504;13.498;2022-07-29T12:08:17;25.80;63.10
40808;DHT22;26523;52.504;13.498;2022-07-29T12:10:47;25.90;63.20
40808;DHT22;26523;52.504;13.498;2022-07-29T12:13:15;26.00;63.70
40808;DHT22;26523;52.504;13.498;2022-07-29T12:15:42;25.90;63.50
40808;DHT22;26523;52.504;13.498;2022-07-29T12:18:19;26.20;63.60
40808;DHT22;26523;52.504;13.498;2022-07-29T12:20:47;26.00;64.10
40808;DHT22;26523;52.504;13.498;2022-07-29T12:23:13;26.10;64.10
40808;DHT22;26523;52.504;13.498;2022-07-29T12:25:41;26.00;63.80
40808;DHT22;26523;52.504;13.498;2022-07-29T12:28:09;26.20;63.90
40808;DHT22;26523;52.504;13.498;2022-07-29T12:30:43;26.30;63.30
40808;DHT22;26523;52.504;13.498;2022-07-29T12:33:28;26.20;63.30
40808;DHT22;26523;52.504;13.498;2022-07-29T12:35:57;26.10;63.40
40808;DHT22;26523;52.504;13.498;2022-07-29T12:38:24;26.20;63.90
40808;DHT22;26523;52.504;13.498;2022-07-29T12:40:52;26.40;64.00
40808;DHT22;26523;52.504;13.498;2022-07-29T12:43:20;26.50;63.10
40808;DHT22;26523;52.504;13.498;2022-07-29T12:45:48;26.30;63.40
40808;DHT22;26523;52.504;13.498;2022-07-29T12:48:15;26.20;62.80
40808;DHT22;26523;52.504;13.498;2022-07-29T12:50:58;26.20;63.90
40808;DHT22;26523;52.504;13.498;2022-07-29T12:53:24;26.30;63.00
40808;DHT22;26523;52.504;13.498;2022-07-29T12:55:52;26.30;62.60
40808;DHT22;26523;52.504;13.498;2022-07-29T12:58:38;26.30;62.80
40808;DHT22;26523;52.504;13.498;2022-07-29T13:01:08;26.20;63.00
40808;DHT22;26523;52.504;13.498;2022-07-29T13:03:55;26.20;62.10
40808;DHT22;26523;52.504;13.498;2022-07-29T13:09:18;26.40;62.00
40808;DHT22;26523;52.504;13.498;2022-07-29T13:11:48;26.60;61.30
40808;DHT22;26523;52.504;13.498;2022-07-29T13:14:35;26.70;61.30
40808;DHT22;26523;52.504;13.498;2022-07-29T13:19:37;27.10;60.90
40808;DHT22;26523;52.504;13.498;2022-07-29T13:22:03;27.10;61.70
40808;DHT22;26523;52.504;13.498;2022-07-29T13:24:29;27.20;62.00
40808;DHT22;26523;52.504;13.498;2022-07-29T13:26:55;27.00;61.90
40808;DHT22;26523;52.504;13.498;2022-07-29T13:29:20;26.80;62.30
40808;DHT22;26523;52.504;13.498;2022-07-29T13:31:46;26.70;62.40
40808;DHT22;26523;52.504;13.498;2022-07-29T13:34:11;26.70;63.00
40808;DHT22;26523;52.504;13.498;2022-07-29T13:36:37;26.80;62.80
40808;DHT22;26523;52.504;13.498;2022-07-29T13:39:03;26.90;62.30
40808;DHT22;26523;52.504;13.498;2022-07-29T13:41:29;26.90;61.90
40808;DHT22;26523;52.504;13.498;2022-07-29T13:43:55;27.10;62.50
40808;DHT22;26523;52.504;13.498;2022-07-29T13:46:20;27.20;62.40
40808;DHT22;26523;52.504;13.498;2022-07-29T13:48:46;27.10;61.70
40808;DHT22;26523;52.504;13.498;2022-07-29T13:51:12;27.30;62.90
40808;DHT22;26523;52.504;13.498;2022-07-29T13:53:37;27.30;61.50
40808;DHT22;26523;52.504;13.498;2022-07-29T13:56:03;27.10;61.90
40808;DHT22;26523;52.504;13.498;2022-07-29T13:58:31;27.10;61.90
40808;DHT22;26523;52.504;13.498;2022-07-29T14:00:57;27.10;62.10
40808;DHT22;26523;52.504;13.498;2022-07-29T14:03:23;27.30;61.80
40808;DHT22;26523;52.504;13.498;2022-07-29T14:05:49;27.30;61.10
40808;DHT22;26523;52.504;13.498;2022-07-29T14:08:15;27.20;61.80
40808;DHT22;26523;52.504;13.498;2022-07-29T14:10:40;26.90;61.90
40808;DHT22;26523;52.504;13.498;2022-07-29T14:13:06;26.70;62.10
40808;DHT22;26523;52.504;13.498;2022-07-29T14:15:32;26.60;62.30
40808;DHT22;26523;52.504;13.498;2022-07-29T14:17:57;26.60;62.60
40808;DHT22;26523;52.504;13.498;2022-07-29T14:20:23;26.40;63.10
40808;DHT22;26523;52.504;13.498;2022-07-29T14:22:48;26.30;63.10
40808;DHT22;26523;52.504;13.498;2022-07-29T14:25:14;26.20;63.40
40808;DHT22;26523;52.504;13.498;2022-07-29T14:27:39;26.10;63.50
40808;DHT22;26523;52.504;13.498;2022-07-29T14:30:06;26.00;63.80
40808;DHT22;26523;52.504;13.498;2022-07-29T14:32:32;26.00;64.00
40808;DHT22;26523;52.504;13.498;2022-07-29T14:34:57;26.10;63.40
40808;DHT22;26523;52.504;13.498;2022-07-29T14:37:23;26.20;62.90
40808;DHT22;26523;52.504;13.498;2022-07-29T14:39:48;26.50;63.30
40808;DHT22;26523;52.504;13.498;2022-07-29T14:42:14;26.60;62.00
40808;DHT22;26523;52.504;13.498;2022-07-29T14:44:40;26.60;62.70
40808;DHT22;26523;52.504;13.498;2022-07-29T14:47:06;26.70;61.50
40808;DHT22;26523;52.504;13.498;2022-07-29T14:49:32;26.70;61.70
40808;DHT22;26523;52.504;13.498;2022-07-29T14:51:58;26.60;61.20
40808;DHT22;26523;52.504;13.498;2022-07-29T14:54:23;26.60;61.50
40808;DHT22;26523;52.504;13.498;2022-07-29T14:56:49;26.60;60.90
40808;DHT22;26523;52.504;13.498;2022-07-29T14:59:16;26.70;61.30
40808;DHT22;26523;52.504;13.498;2022-07-29T15:01:42;26.80;61.30
40808;DHT22;26523;52.504;13.498;2022-07-29T15:04:10;27.00;61.00
40808;DHT22;26523;52.504;13.498;2022-07-29T15:06:36;27.00;60.50
40808;DHT22;26523;52.504;13.498;2022-07-29T15:09:03;27.00;60.00
40808;DHT22;26523;52.504;13.498;2022-07-29T15:11:28;27.00;60.10
40808;DHT22;26523;52.504;13.498;2022-07-29T15:13:54;27.00;60.10
40808;DHT22;26523;52.504;13.498;2022-07-29T15:16:20;26.90;59.90
40808;DHT22;26523;52.504;13.498;2022-07-29T15:18:45;27.00;60.10
40808;DHT22;26523;52.504;13.498;2022-07-29T15:21:11;27.20;60.20
40808;DHT22;26523;52.504;13.498;2022-07-29T15:23:36;27.40;58.60
40808;DHT22;26523;52.504;13.498;2022-07-29T15:26:03;27.60;59.00
40808;DHT22;26523;52.504;13.498;2022-07-29T15:28:28;27.40;59.30
40808;DHT22;26523;52.504;13.498;2022-07-29T15:30:54;27.20;59.50
40808;DHT22;26523;52.504;13.498;2022-07-29T15:33:20;27.10;59.60
40808;DHT22;26523;52.504;13.498;2022-07-29T15:35:45;27.20;59.20
40808;DHT22;26523;52.504;13.498;2022-07-29T15:38:11;27.10;59.70
40808;DHT22;26523;52.504;13.498;2022-07-29T15:40:38;27.20;60.00
40808;DHT22;26523;52.504;13.498;2022-07-29T15:43:06;27.20;60.40
40808;DHT22;26523;52.504;13.498;2022-07-29T15:45:36;27.20;60.30
40808;DHT22;26523;52.504;13.498;2022-07-29T15:48:04;27.10;59.90
40808;DHT22;26523;52.504;13.498;2022-07-29T15:50:29;26.90;60.30
40808;DHT22;26523;52.504;13.498;2022-07-29T15:52:55;26.90;60.00
40808;DHT22;26523;52.504;13.498;2022-07-29T15:55:20;26.90;60.10